Time;durP1;ratioP1;P1;durP2;ratioP2;P2;SDS_P1;SDS_P2;PMS_P1;PMS_P2;Temp;Humidity;BMP_temperature;BMP_pressure;BME280_temperature;BME280_humidity;BME280_pressure;Samples;Min_cycle;Max_cycle;Signal;HPM_P1;HPM_P2
2021/09/22 00:02:10;;;;;;;8.48;5.82;;;8.90;99.90;;;;;;4989502;28;20513;-59
2021/09/22 00:04:35;;;;;;;8.48;5.57;;;8.90;99.90;;;;;;4991549;28;20038;-57
2021/09/22 00:07:01;;;;;;;9.98;5.95;;;8.80;99.90;;;;;;4989951;28;20033;-53
2021/09/22 00:09:30;;;;;;;11.02;6.18;;;8.80;99.90;;;;;;4984055;28;20547;-60
2021/09/22 00:11:56;;;;;;;12.98;5.82;;;8.80;99.90;;;;;;4966629;28;20038;-61
2021/09/22 00:14:22;;;;;;;11.60;6.15;;;8.80;99.90;;;;;;4992915;28;20072;-59
2021/09/22 00:16:47;;;;;;;11.20;5.55;;;8.70;99.90;;;;;;4988634;28;20037;-53
2021/09/22 00:19:13;;;;;;;8.63;6.22;;;8.70;99.90;;;;;;4992899;28;20097;-58
2021/09/22 00:21:39;;;;;;;9.52;6.03;;;8.70;99.90;;;;;;4987831;28;20654;-59
2021/09/22 00:24:04;;;;;;;10.38;5.47;;;8.70;99.90;;;;;;4974262;28;20025;-58
2021/09/22 00:26:30;;;;;;;11.13;5.50;;;8.70;99.90;;;;;;4990951;28;20560;-59
2021/09/22 00:28:56;;;;;;;12.65;5.88;;;8.70;99.90;;;;;;4989460;28;20073;-57
2021/09/22 00:31:22;;;;;;;9.20;5.32;;;8.70;99.90;;;;;;4990961;28;20034;-60
2021/09/22 00:33:48;;;;;;;8.50;5.72;;;8.70;99.90;;;;;;4976527;28;20486;-61
2021/09/22 00:36:14;;;;;;;14.45;6.18;;;8.70;99.90;;;;;;4975626;28;20509;-57
2021/09/22 00:38:40;;;;;;;8.65;5.53;;;8.70;99.90;;;;;;4992017;28;20032;-59
2021/09/22 00:41:06;;;;;;;8.75;5.78;;;8.70;99.90;;;;;;4978916;28;20485;-58
2021/09/22 00:43:32;;;;;;;9.60;5.90;;;8.70;99.90;;;;;;4973291;28;20030;-60
2021/09/22 00:46:03;;;;;;;8.60;5.60;;;8.70;99.90;;;;;;4988725;28;20030;-56
2021/09/22 00:48:31;;;;;;;6.82;4.82;;;8.70;99.90;;;;;;4989163;28;20034;-58
2021/09/22 00:50:57;;;;;;;13.32;6.47;;;8.60;99.90;;;;;;4972911;28;20034;-60
2021/09/22 00:53:23;;;;;;;11.10;6.65;;;8.60;99.90;;;;;;4992382;28;20076;-58
2021/09/22 00:55:51;;;;;;;11.90;6.15;;;8.50;99.90;;;;;;4991200;28;20030;-57
2021/09/22 00:58:16;;;;;;;8.82;5.70;;;8.50;99.90;;;;;;4975840;28;20034;-56
2021/09/22 01:00:42;;;;;;;6.72;5.20;;;8.50;99.90;;;;;;4974210;28;20022;-60
2021/09/22 01:03:08;;;;;;;8.63;6.15;;;8.40;99.90;;;;;;4969234;28;20066;-60
2021/09/22 01:05:34;;;;;;;8.77;5.63;;;8.40;99.90;;;;;;4982388;28;20291;-58
2021/09/22 01:08:00;;;;;;;9.00;5.85;;;8.40;99.90;;;;;;4969513;28;20577;-58
2021/09/22 01:10:26;;;;;;;11.80;6.47;;;8.30;99.90;;;;;;4969258;28;20133;-57
2021/09/22 01:12:52;;;;;;;11.80;6.75;;;8.40;99.90;;;;;;4994031;28;20126;-62
2021/09/22 01:15:31;;;;;;;10.88;7.28;;;8.40;99.90;;;;;;4990674;28;20109;-55
2021/09/22 01:17:58;;;;;;;10.60;6.60;;;8.50;99.90;;;;;;4988446;28;20041;-59
2021/09/22 01:20:28;;;;;;;8.88;5.88;;;8.50;99.90;;;;;;4992778;28;20029;-60
2021/09/22 01:22:55;;;;;;;7.85;6.00;;;8.50;99.90;;;;;;4999085;28;20595;-59
2021/09/22 01:25:21;;;;;;;8.68;6.13;;;8.50;99.90;;;;;;4994929;28;20067;-58
2021/09/22 01:27:50;;;;;;;9.75;6.90;;;8.50;99.90;;;;;;4976188;28;20030;-55
2021/09/22 01:30:16;;;;;;;12.23;6.72;;;8.50;99.90;;;;;;4990825;28;20034;-58
2021/09/22 01:32:56;;;;;;;9.95;6.20;;;8.50;99.90;;;;;;4998377;28;20033;-58
2021/09/22 01:35:23;;;;;;;11.95;6.25;;;8.50;99.90;;;;;;4991338;28;20037;-58
2021/09/22 01:37:50;;;;;;;12.73;6.35;;;8.50;99.90;;;;;;4972301;28;20042;-58
2021/09/22 01:40:16;;;;;;;10.00;6.43;;;8.50;99.90;;;;;;4991134;28;20073;-60
2021/09/22 01:42:43;;;;;;;11.75;6.80;;;8.50;99.90;;;;;;4992960;28;20541;-59
2021/09/22 01:45:11;;;;;;;13.75;7.07;;;8.50;99.90;;;;;;4993174;28;20034;-60
2021/09/22 01:47:37;;;;;;;12.65;6.40;;;8.50;99.90;;;;;;4977290;28;20080;-58
2021/09/22 01:50:21;;;;;;;11.18;6.95;;;8.40;99.90;;;;;;4992501;28;20744;-59
2021/09/22 01:52:50;;;;;;;9.77;6.35;;;8.40;99.90;;;;;;4989018;28;20072;-59
2021/09/22 01:55:21;;;;;;;10.55;6.50;;;8.40;99.90;;;;;;4988769;28;20027;-60
2021/09/22 01:57:48;;;;;;;11.88;6.95;;;8.40;99.90;;;;;;4986825;28;20026;-60
2021/09/22 02:00:14;;;;;;;9.60;6.45;;;8.40;99.90;;;;;;4992885;28;20026;-58
2021/09/22 02:02:40;;;;;;;8.50;6.10;;;8.30;99.90;;;;;;4974472;28;20030;-59
2021/09/22 02:05:06;;;;;;;7.95;5.85;;;8.30;99.90;;;;;;4993805;28;20081;-60
2021/09/22 02:07:32;;;;;;;10.35;6.28;;;8.30;99.90;;;;;;4989580;28;20033;-58
2021/09/22 02:09:59;;;;;;;9.77;6.47;;;8.30;99.90;;;;;;4971540;28;20461;-59
2021/09/22 02:12:26;;;;;;;9.77;5.65;;;8.20;99.90;;;;;;4976139;28;20042;-61
2021/09/22 02:14:52;;;;;;;10.30;5.70;;;8.20;99.90;;;;;;4980975;28;20468;-61
2021/09/22 02:17:17;;;;;;;9.90;6.40;;;8.10;99.90;;;;;;4979905;28;20018;-59
2021/09/22 02:19:43;;;;;;;15.65;6.13;;;8.10;99.90;;;;;;4992440;28;20528;-57
2021/09/22 02:22:09;;;;;;;15.00;6.10;;;8.10;99.90;;;;;;4994752;28;20022;-58
2021/09/22 02:24:37;;;;;;;12.70;6.53;;;8.00;99.90;;;;;;4995881;28;20088;-58
2021/09/22 02:27:03;;;;;;;11.25;6.55;;;8.00;99.90;;;;;;4993275;28;20026;-57
2021/09/22 02:29:29;;;;;;;16.95;6.57;;;8.00;99.90;;;;;;4996589;28;20034;-58
2021/09/22 02:31:55;;;;;;;10.27;6.65;;;8.00;99.90;;;;;;4985910;28;20034;-58
2021/09/22 02:34:20;;;;;;;10.35;6.55;;;8.00;99.90;;;;;;4992676;28;20665;-58
2021/09/22 02:36:46;;;;;;;9.40;6.10;;;7.90;99.90;;;;;;4995095;28;20057;-60
2021/09/22 02:39:12;;;;;;;11.73;6.55;;;7.90;99.90;;;;;;4968510;28;20068;-59
2021/09/22 02:41:37;;;;;;;11.73;6.30;;;7.90;99.90;;;;;;4981989;28;20033;-59
2021/09/22 02:44:03;;;;;;;9.95;6.63;;;7.90;99.90;;;;;;5005840;28;20485;-60
2021/09/22 02:46:29;;;;;;;15.20;7.40;;;7.90;99.90;;;;;;4986576;28;20405;-53
2021/09/22 02:48:55;;;;;;;11.52;6.43;;;7.80;99.90;;;;;;4994225;28;20035;-58
2021/09/22 02:51:21;;;;;;;10.70;6.40;;;7.80;99.90;;;;;;4976308;28;20022;-60
2021/09/22 02:53:46;;;;;;;12.13;7.22;;;7.80;99.90;;;;;;4992885;28;20105;-60
2021/09/22 02:56:12;;;;;;;11.38;6.80;;;7.80;99.90;;;;;;5005580;28;20561;-59
2021/09/22 02:58:37;;;;;;;16.75;7.28;;;7.80;99.90;;;;;;4990535;28;20022;-58
2021/09/22 03:01:04;;;;;;;10.77;6.13;;;7.70;99.90;;;;;;4993739;28;20064;-61
2021/09/22 03:03:31;;;;;;;12.68;7.00;;;7.80;99.90;;;;;;4993709;28;20035;-59
2021/09/22 03:05:57;;;;;;;8.98;6.50;;;7.70;99.90;;;;;;4990881;28;20069;-60
2021/09/22 03:08:23;;;;;;;13.63;6.55;;;7.70;99.90;;;;;;4990935;28;20039;-61
2021/09/22 03:10:48;;;;;;;11.20;6.78;;;7.70;99.90;;;;;;4979636;28;20065;-60
2021/09/22 03:13:14;;;;;;;11.90;6.93;;;7.80;99.90;;;;;;4991834;28;20045;-58
2021/09/22 03:15:40;;;;;;;12.98;6.88;;;7.80;99.90;;;;;;4994747;28;20077;-59
2021/09/22 03:18:06;;;;;;;11.00;6.70;;;7.80;99.90;;;;;;4986046;28;20035;-58
2021/09/22 03:20:31;;;;;;;11.65;6.57;;;7.80;99.90;;;;;;4988625;28;20023;-58
2021/09/22 03:22:57;;;;;;;11.15;6.18;;;7.80;99.90;;;;;;4988806;28;20085;-60
2021/09/22 03:25:23;;;;;;;11.60;6.20;;;7.80;99.90;;;;;;4993927;28;20030;-59
2021/09/22 03:27:48;;;;;;;11.73;6.93;;;7.70;99.90;;;;;;4996562;28;20092;-57
2021/09/22 03:30:14;;;;;;;9.90;6.78;;;7.70;99.90;;;;;;4992313;28;20038;-56
2021/09/22 03:32:40;;;;;;;12.02;6.00;;;7.70;99.90;;;;;;4990438;28;20030;-59
2021/09/22 03:35:06;;;;;;;12.73;6.45;;;7.70;99.90;;;;;;4983628;28;20034;-60
2021/09/22 03:37:32;;;;;;;10.20;6.20;;;7.60;99.90;;;;;;4995524;28;20029;-59
2021/09/22 03:39:58;;;;;;;14.25;6.53;;;7.60;99.90;;;;;;4976795;28;20055;-59
2021/09/22 03:42:23;;;;;;;9.98;6.30;;;7.60;99.90;;;;;;4990723;28;20041;-58
2021/09/22 03:44:49;;;;;;;11.48;6.35;;;7.50;99.90;;;;;;4991244;28;20026;-59
2021/09/22 03:47:15;;;;;;;10.82;5.90;;;7.50;99.90;;;;;;4991222;28;20080;-60
2021/09/22 03:49:40;;;;;;;10.13;6.35;;;7.40;99.90;;;;;;4999674;28;20088;-50
2021/09/22 03:52:06;;;;;;;9.07;5.78;;;7.40;99.90;;;;;;4972534;28;20287;-59
2021/09/22 03:54:32;;;;;;;9.27;5.82;;;7.40;99.90;;;;;;4981256;28;20022;-59
2021/09/22 03:56:58;;;;;;;11.85;6.65;;;7.40;99.90;;;;;;4990588;28;20042;-55
2021/09/22 03:59:23;;;;;;;9.13;5.82;;;7.40;99.90;;;;;;4989117;28;20031;-61
2021/09/22 04:01:49;;;;;;;11.23;6.50;;;7.30;99.90;;;;;;4994539;28;20486;-59
2021/09/22 04:04:14;;;;;;;10.98;6.07;;;7.30;99.90;;;;;;4987749;28;20034;-57
2021/09/22 04:06:40;;;;;;;9.30;5.53;;;7.30;99.90;;;;;;4990504;28;20038;-58
2021/09/22 04:09:10;;;;;;;13.65;6.78;;;7.30;99.90;;;;;;4991111;28;20041;-58
2021/09/22 04:11:36;;;;;;;10.85;6.40;;;7.30;99.90;;;;;;4995600;28;20068;-59
2021/09/22 04:14:03;;;;;;;11.38;6.63;;;7.20;99.90;;;;;;4973513;28;20100;-61
2021/09/22 04:16:29;;;;;;;9.38;7.18;;;7.10;99.90;;;;;;4973998;28;20529;-58
2021/09/22 04:18:55;;;;;;;11.90;7.10;;;7.10;99.90;;;;;;4992819;28;20169;-60
2021/09/22 04:21:20;;;;;;;13.52;7.53;;;7.10;99.90;;;;;;4989695;28;20033;-61
2021/09/22 04:23:46;;;;;;;14.90;6.85;;;7.10;99.90;;;;;;4999913;28;20034;-54
2021/09/22 04:26:11;;;;;;;13.60;6.97;;;7.10;99.90;;;;;;4987665;28;20121;-60
2021/09/22 04:28:37;;;;;;;13.98;6.18;;;7.10;99.90;;;;;;4997229;28;20049;-60
2021/09/22 04:31:03;;;;;;;15.15;7.20;;;7.10;99.90;;;;;;4989774;28;20034;-58
2021/09/22 04:33:29;;;;;;;10.88;6.78;;;7.00;99.90;;;;;;4979493;28;20057;-59
2021/09/22 04:35:56;;;;;;;16.77;7.03;;;7.00;99.90;;;;;;4976576;28;20473;-58
2021/09/22 04:38:22;;;;;;;16.25;8.23;;;7.10;99.90;;;;;;4988082;28;20081;-60
2021/09/22 04:40:48;;;;;;;10.38;7.35;;;7.10;99.90;;;;;;4980359;28;20142;-60
2021/09/22 04:43:13;;;;;;;15.32;7.95;;;7.10;99.90;;;;;;4972838;28;20121;-60
2021/09/22 04:45:39;;;;;;;11.20;7.32;;;7.10;99.90;;;;;;4995154;28;20049;-58
2021/09/22 04:48:06;;;;;;;10.50;6.72;;;7.10;99.90;;;;;;4987593;28;20034;-59
2021/09/22 04:50:32;;;;;;;11.07;8.15;;;7.10;99.90;;;;;;4987328;28;20026;-55
2021/09/22 04:52:58;;;;;;;10.35;6.90;;;7.10;99.90;;;;;;4962399;28;20061;-59
2021/09/22 04:55:23;;;;;;;12.13;7.28;;;7.10;99.90;;;;;;4977062;28;20134;-59
2021/09/22 04:57:49;;;;;;;11.38;6.82;;;7.00;99.90;;;;;;4989418;28;20088;-61
2021/09/22 05:00:15;;;;;;;12.15;6.10;;;7.00;99.90;;;;;;4992638;28;20039;-58
2021/09/22 05:02:40;;;;;;;15.52;6.97;;;7.00;99.90;;;;;;4977327;28;20030;-59
2021/09/22 05:05:07;;;;;;;9.82;6.43;;;7.00;99.90;;;;;;4993616;28;20066;-59
2021/09/22 05:07:32;;;;;;;12.00;6.85;;;7.00;99.90;;;;;;4987502;28;20030;-60
2021/09/22 05:09:58;;;;;;;12.85;7.15;;;7.00;99.90;;;;;;4990819;28;20038;-59
2021/09/22 05:12:24;;;;;;;10.85;6.82;;;7.00;99.90;;;;;;4986326;28;20085;-59
2021/09/22 05:14:50;;;;;;;10.20;6.25;;;6.90;99.90;;;;;;4991601;28;20022;-57
2021/09/22 05:17:15;;;;;;;12.98;7.25;;;7.00;99.90;;;;;;4984759;28;20026;-59
2021/09/22 05:19:41;;;;;;;10.23;6.65;;;6.90;99.90;;;;;;4990871;28;20449;-56
2021/09/22 05:22:07;;;;;;;13.90;8.15;;;6.90;99.90;;;;;;4978639;28;20030;-58
2021/09/22 05:24:32;;;;;;;11.93;7.38;;;6.90;99.90;;;;;;4990799;28;20105;-54
2021/09/22 05:26:58;;;;;;;12.70;8.00;;;6.90;99.90;;;;;;4989809;28;20529;-59
2021/09/22 05:29:24;;;;;;;11.35;7.82;;;6.90;99.90;;;;;;4994829;28;20418;-59
2021/09/22 05:31:49;;;;;;;11.88;7.75;;;7.00;99.90;;;;;;4986513;28;20039;-59
2021/09/22 05:34:15;;;;;;;16.83;8.32;;;7.00;99.90;;;;;;4991994;28;20697;-58
2021/09/22 05:36:40;;;;;;;26.88;16.80;;;7.10;99.90;;;;;;4986590;28;20100;-60
2021/09/22 05:39:06;;;;;;;33.10;17.08;;;7.10;99.90;;;;;;4983482;28;20162;-59
2021/09/22 05:41:32;;;;;;;28.83;14.45;;;7.10;99.90;;;;;;4969818;28;20505;-58
2021/09/22 05:43:58;;;;;;;16.23;9.52;;;7.20;99.90;;;;;;4992381;28;20085;-57
2021/09/22 05:46:23;;;;;;;16.50;10.25;;;7.20;99.90;;;;;;4978664;28;20065;-60
2021/09/22 05:48:49;;;;;;;13.70;8.50;;;7.30;99.90;;;;;;4983048;28;20109;-60
2021/09/22 05:51:15;;;;;;;15.65;9.48;;;7.40;99.90;;;;;;4985025;28;20425;-58
2021/09/22 05:53:43;;;;;;;14.98;9.15;;;7.50;99.90;;;;;;4992056;28;20097;-59
2021/09/22 05:56:09;;;;;;;11.48;6.80;;;7.50;99.90;;;;;;4991569;28;20485;-60
2021/09/22 05:58:34;;;;;;;9.50;6.57;;;7.60;99.90;;;;;;4988781;28;20026;-59
2021/09/22 06:01:00;;;;;;;10.18;7.05;;;7.70;99.90;;;;;;4972108;28;20468;-60
2021/09/22 06:03:26;;;;;;;10.05;6.55;;;7.80;99.90;;;;;;4990088;28;20030;-58
2021/09/22 06:05:52;;;;;;;14.00;10.35;;;7.80;99.90;;;;;;4993104;28;20076;-59
2021/09/22 06:08:17;;;;;;;17.88;12.45;;;7.90;99.90;;;;;;4983606;28;20401;-58
2021/09/22 06:10:46;;;;;;;15.15;9.18;;;7.90;99.90;;;;;;4988958;28;20065;-59
2021/09/22 06:13:12;;;;;;;11.57;6.85;;;8.00;99.90;;;;;;4993254;28;20029;-61
2021/09/22 06:15:39;;;;;;;9.80;6.35;;;8.10;99.90;;;;;;4991450;28;20042;-61
2021/09/22 06:18:05;;;;;;;26.67;17.25;;;8.20;99.90;;;;;;4990444;28;20034;-59
2021/09/22 06:20:31;;;;;;;14.35;9.57;;;8.20;99.90;;;;;;4994742;28;20152;-56
2021/09/22 06:22:57;;;;;;;11.13;7.57;;;8.40;99.90;;;;;;4977745;28;20048;-58
2021/09/22 06:25:23;;;;;;;14.75;10.23;;;8.50;99.90;;;;;;4987699;28;20031;-59
2021/09/22 06:27:49;;;;;;;22.48;16.58;;;8.40;99.90;;;;;;4963404;28;20033;-58
2021/09/22 06:30:15;;;;;;;21.02;12.82;;;8.50;99.90;;;;;;4972816;28;20050;-59
2021/09/22 06:32:41;;;;;;;17.83;13.25;;;8.70;99.90;;;;;;4971040;28;20031;-59
2021/09/22 06:35:09;;;;;;;15.50;11.00;;;8.80;99.90;;;;;;4968981;28;20478;-59
2021/09/22 06:37:34;;;;;;;15.35;9.32;;;8.90;99.90;;;;;;4970019;28;20460;-59
2021/09/22 06:40:00;;;;;;;9.40;7.00;;;9.00;99.90;;;;;;4970339;28;20063;-59
2021/09/22 06:42:26;;;;;;;15.02;9.50;;;9.30;99.90;;;;;;4946535;28;20101;-58
2021/09/22 06:44:51;;;;;;;12.00;8.05;;;9.60;99.90;;;;;;4971634;28;20083;-59
2021/09/22 06:47:17;;;;;;;9.30;7.15;;;9.90;99.90;;;;;;4970023;28;20030;-54
2021/09/22 06:49:42;;;;;;;10.82;6.93;;;10.30;99.90;;;;;;4971446;28;20035;-59
2021/09/22 06:52:08;;;;;;;11.77;8.25;;;10.60;99.90;;;;;;4952281;28;20086;-60
2021/09/22 06:54:34;;;;;;;9.65;6.95;;;10.70;99.90;;;;;;4969861;28;20039;-55
2021/09/22 06:57:00;;;;;;;11.38;6.50;;;10.80;99.90;;;;;;4974012;28;20084;-59
2021/09/22 06:59:26;;;;;;;9.02;5.38;;;11.20;99.90;;;;;;4975129;28;20461;-59
2021/09/22 07:01:52;;;;;;;9.60;6.43;;;12.00;99.90;;;;;;4971542;28;20038;-58
2021/09/22 07:04:21;;;;;;;10.52;5.65;;;12.20;99.90;;;;;;4972247;28;20031;-59
2021/09/22 07:06:47;;;;;;;10.57;5.30;;;12.50;99.90;;;;;;4975825;28;20549;-60
2021/09/22 07:09:12;;;;;;;7.82;5.40;;;12.50;99.90;;;;;;4969711;28;20102;-63
2021/09/22 07:11:38;;;;;;;8.18;5.78;;;12.50;99.90;;;;;;4973750;28;20023;-60
2021/09/22 07:14:04;;;;;;;8.82;5.63;;;12.40;99.90;;;;;;4974447;28;20027;-59
2021/09/22 07:16:30;;;;;;;9.98;5.63;;;12.00;99.90;;;;;;4981996;28;20105;-57
2021/09/22 07:18:59;;;;;;;12.90;5.97;;;12.00;99.90;;;;;;4975110;28;20582;-59
2021/09/22 07:21:25;;;;;;;14.60;6.82;;;11.90;99.90;;;;;;4967540;28;20461;-61
2021/09/22 07:23:51;;;;;;;12.88;8.07;;;11.90;99.90;;;;;;4976345;28;20282;-58
2021/09/22 07:26:17;;;;;;;12.27;6.35;;;12.00;99.90;;;;;;4974582;28;20403;-59
2021/09/22 07:28:43;;;;;;;8.50;5.90;;;12.20;99.90;;;;;;4958981;28;20703;-59
2021/09/22 07:31:09;;;;;;;10.93;6.15;;;12.20;99.90;;;;;;4972728;28;20044;-60
2021/09/22 07:33:35;;;;;;;9.52;5.55;;;12.40;99.90;;;;;;4957161;28;20062;-63
2021/09/22 07:36:02;;;;;;;11.70;5.63;;;12.70;99.90;;;;;;4975162;28;20491;-60
2021/09/22 07:38:28;;;;;;;9.43;6.22;;;12.70;99.90;;;;;;4969835;28;20031;-60
2021/09/22 07:40:55;;;;;;;13.48;6.05;;;12.70;99.90;;;;;;4994068;28;20391;-60
2021/09/22 07:43:20;;;;;;;14.73;5.97;;;12.80;99.90;;;;;;4950150;28;20039;-59
2021/09/22 07:45:46;;;;;;;10.77;6.95;;;12.90;99.90;;;;;;4973609;28;20089;-60
2021/09/22 07:48:12;;;;;;;10.30;7.05;;;13.10;99.90;;;;;;4961756;28;20050;-59
2021/09/22 07:50:38;;;;;;;9.48;5.70;;;13.40;99.90;;;;;;4988878;28;20143;-58
2021/09/22 07:53:04;;;;;;;9.90;5.45;;;13.70;99.90;;;;;;4973732;28;20502;-60
2021/09/22 07:55:30;;;;;;;10.07;6.13;;;14.30;99.90;;;;;;4974101;28;20035;-60
2021/09/22 07:57:56;;;;;;;12.70;6.20;;;14.70;99.90;;;;;;4977022;28;20049;-58
2021/09/22 08:00:23;;;;;;;8.30;6.03;;;14.90;99.90;;;;;;4957851;28;20028;-59
2021/09/22 08:02:51;;;;;;;8.30;5.90;;;15.30;99.90;;;;;;4976173;28;20046;-60
2021/09/22 08:05:17;;;;;;;10.15;5.85;;;15.90;99.90;;;;;;4953791;28;20546;-60
2021/09/22 08:07:46;;;;;;;8.07;5.40;;;16.10;99.90;;;;;;4974911;28;20491;-61
2021/09/22 08:10:14;;;;;;;12.50;6.50;;;16.40;99.90;;;;;;4952495;28;20038;-57
2021/09/22 08:12:40;;;;;;;9.20;5.57;;;16.30;99.90;;;;;;4970067;28;20027;-60
2021/09/22 08:15:08;;;;;;;10.75;6.15;;;16.40;99.90;;;;;;4974184;28;20062;-60
2021/09/22 08:17:34;;;;;;;9.68;7.20;;;16.50;99.30;;;;;;4972933;28;20557;-59
2021/09/22 08:20:00;;;;;;;9.52;6.97;;;16.50;99.90;;;;;;4974844;28;20103;-60
2021/09/22 08:22:25;;;;;;;10.73;7.07;;;16.40;99.50;;;;;;4978099;28;20035;-61
2021/09/22 08:24:51;;;;;;;8.65;6.13;;;16.80;99.10;;;;;;4975886;28;20101;-59
2021/09/22 08:27:17;;;;;;;10.15;7.00;;;17.20;99.30;;;;;;4972707;28;20065;-60
2021/09/22 08:29:43;;;;;;;10.15;7.22;;;17.40;97.50;;;;;;4972812;28;20030;-60
2021/09/22 08:32:09;;;;;;;15.10;8.70;;;17.70;97.40;;;;;;4959097;28;20560;-60
2021/09/22 08:34:35;;;;;;;11.95;7.63;;;18.10;96.90;;;;;;4990537;28;20106;-59
2021/09/22 08:37:01;;;;;;;12.77;8.07;;;18.40;96.80;;;;;;4973491;28;20113;-60
2021/09/22 08:39:32;;;;;;;13.23;9.10;;;18.60;96.00;;;;;;4972371;28;20710;-61
2021/09/22 08:41:58;;;;;;;18.13;10.05;;;18.10;95.10;;;;;;4970077;28;20142;-61
2021/09/22 08:44:24;;;;;;;15.38;9.00;;;17.80;96.00;;;;;;4997302;28;20037;-61
2021/09/22 08:46:51;;;;;;;14.98;8.18;;;17.80;96.40;;;;;;4978655;28;20033;-60
2021/09/22 08:49:17;;;;;;;10.88;8.15;;;18.20;96.70;;;;;;4980390;28;20040;-61
2021/09/22 08:51:43;;;;;;;11.88;7.90;;;18.70;95.90;;;;;;4994551;28;20027;-60
2021/09/22 08:54:09;;;;;;;14.38;8.60;;;19.20;95.80;;;;;;4978359;28;20448;-59
2021/09/22 08:56:40;;;;;;;15.18;9.23;;;19.30;94.80;;;;;;4979446;28;20040;-60
2021/09/22 08:59:07;;;;;;;17.10;10.15;;;18.80;95.30;;;;;;5007334;28;20085;-60
2021/09/22 09:01:33;;;;;;;11.57;8.68;;;18.30;96.10;;;;;;4973533;28;20030;-60
2021/09/22 09:04:13;;;;;;;16.42;10.48;;;18.60;96.00;;;;;;4984639;28;20030;-60
2021/09/22 09:06:39;;;;;;;15.80;9.75;;;18.70;95.90;;;;;;4991085;28;20030;-61
2021/09/22 09:09:05;;;;;;;15.48;7.68;;;18.50;96.20;;;;;;5006278;28;20026;-61
2021/09/22 09:11:35;;;;;;;20.17;10.68;;;18.60;96.60;;;;;;4990684;28;20157;-61
2021/09/22 09:14:03;;;;;;;15.77;10.57;;;18.40;95.80;;;;;;4994896;28;20429;-62
2021/09/22 09:16:36;;;;;;;12.07;8.85;;;18.40;95.80;;;;;;4993846;28;20026;-60
2021/09/22 09:19:09;;;;;;;13.02;9.13;;;18.50;95.70;;;;;;4986796;28;20039;-59
2021/09/22 09:22:02;;;;;;;17.00;10.20;;;18.30;95.90;;;;;;4990146;28;20026;-62
2021/09/22 09:24:47;;;;;;;15.50;10.87;;;18.80;94.60;;;;;;4969134;28;20034;-59
2021/09/22 09:27:24;;;;;;;16.02;9.23;;;18.70;94.60;;;;;;4993781;28;20440;-59
2021/09/22 09:29:54;;;;;;;15.15;9.65;;;19.50;94.40;;;;;;4989691;28;20030;-58
2021/09/22 09:32:22;;;;;;;14.55;10.55;;;20.00;93.70;;;;;;4986638;28;20022;-59
2021/09/22 09:35:06;;;;;;;14.40;9.25;;;20.20;93.60;;;;;;4990934;28;20050;-60
2021/09/22 09:37:34;;;;;;;16.40;9.82;;;20.20;93.60;;;;;;4970578;28;20026;-59
2021/09/22 09:40:29;;;;;;;15.48;10.23;;;20.40;93.10;;;;;;4987705;28;20102;-60
2021/09/22 09:43:02;;;;;;;11.98;8.45;;;20.50;92.80;;;;;;4971049;28;20112;-60
2021/09/22 09:45:34;;;;;;;13.20;8.77;;;20.80;92.70;;;;;;4990234;28;20599;-59
2021/09/22 09:48:10;;;;;;;16.05;9.02;;;20.90;92.80;;;;;;4986409;28;20034;-57
2021/09/22 09:50:42;;;;;;;14.38;9.98;;;20.70;92.70;;;;;;4990016;28;20057;-52
2021/09/22 09:53:08;;;;;;;12.88;9.15;;;20.70;92.00;;;;;;4984379;28;20077;-59
2021/09/22 09:55:39;;;;;;;12.57;8.73;;;21.00;90.50;;;;;;4987995;28;20026;-57
2021/09/22 09:58:05;;;;;;;15.35;10.70;;;21.60;90.40;;;;;;4985719;28;20084;-59
2021/09/22 10:00:39;;;;;;;15.77;9.80;;;21.40;88.80;;;;;;4989834;28;20044;-59
2021/09/22 10:03:16;;;;;;;23.55;11.38;;;21.20;90.40;;;;;;4984466;28;20057;-59
2021/09/22 10:05:43;;;;;;;15.77;9.30;;;21.30;90.90;;;;;;4985563;28;20101;-59
2021/09/22 10:08:14;;;;;;;13.57;9.13;;;21.60;90.20;;;;;;4985152;28;20030;-59
2021/09/22 10:10:45;;;;;;;17.05;10.98;;;21.50;90.30;;;;;;4968642;28;20117;-59
2021/09/22 10:13:13;;;;;;;16.90;11.20;;;21.50;89.30;;;;;;4989250;28;20026;-57
2021/09/22 10:15:40;;;;;;;15.85;10.00;;;21.00;86.40;;;;;;4985539;28;20544;-61
2021/09/22 10:18:07;;;;;;;14.40;10.25;;;20.80;89.00;;;;;;4986897;28;20056;-55
2021/09/22 10:20:34;;;;;;;13.75;10.30;;;20.70;90.30;;;;;;4984676;28;20023;-58
2021/09/22 10:23:00;;;;;;;15.85;10.60;;;20.70;91.40;;;;;;4987375;28;20042;-58
2021/09/22 10:25:26;;;;;;;16.88;10.57;;;20.70;91.00;;;;;;4980740;28;20093;-60
2021/09/22 10:27:52;;;;;;;14.93;9.52;;;20.60;91.30;;;;;;4986345;28;20033;-59
2021/09/22 10:30:36;;;;;;;15.75;11.40;;;20.80;91.00;;;;;;4988995;28;20485;-57
2021/09/22 10:33:03;;;;;;;14.10;10.48;;;20.80;91.10;;;;;;4975796;28;20042;-55
2021/09/22 10:35:39;;;;;;;18.02;11.32;;;20.70;90.00;;;;;;4971212;28;20022;-59
2021/09/22 10:38:20;;;;;;;17.17;11.30;;;20.50;90.50;;;;;;4983320;28;20034;-58
2021/09/22 10:40:57;;;;;;;22.10;14.35;;;20.40;90.40;;;;;;4986355;28;20030;-59
2021/09/22 10:43:36;;;;;;;15.50;11.73;;;20.50;91.30;;;;;;4969886;28;20046;-57
2021/09/22 10:46:08;;;;;;;19.73;12.07;;;20.70;91.30;;;;;;4991013;28;20045;-60
2021/09/22 10:48:36;;;;;;;16.48;11.13;;;20.60;90.90;;;;;;4986725;28;20041;-56
2021/09/22 10:51:04;;;;;;;19.35;11.90;;;20.50;90.60;;;;;;4990496;28;20026;-58
2021/09/22 10:53:33;;;;;;;16.90;11.90;;;20.40;90.50;;;;;;4992269;28;20666;-58
2021/09/22 10:56:14;;;;;;;19.75;13.30;;;20.30;91.10;;;;;;4992707;28;20113;-58
2021/09/22 10:58:54;;;;;;;17.35;11.20;;;20.20;90.20;;;;;;4982907;28;20326;-60
2021/09/22 11:01:32;;;;;;;25.35;14.20;;;20.20;91.40;;;;;;4990804;28;20027;-57
2021/09/22 11:04:01;;;;;;;20.58;14.18;;;20.00;90.60;;;;;;4993395;28;20418;-60
2021/09/22 11:06:43;;;;;;;25.10;14.50;;;20.00;92.50;;;;;;4984464;28;20080;-56
2021/09/22 11:09:10;;;;;;;20.27;10.65;;;20.10;92.20;;;;;;4990734;28;20035;-58
2021/09/22 11:14:41;;;;;;;23.92;11.77;;;20.40;91.10;;;;;;4991646;28;20030;-58
2021/09/22 11:17:24;;;;;;;20.33;12.25;;;20.40;91.40;;;;;;4988714;28;20073;-60
2021/09/22 11:19:57;;;;;;;16.55;11.70;;;20.40;91.20;;;;;;4977184;28;20786;-59
2021/09/22 11:22:34;;;;;;;18.75;10.05;;;20.30;92.00;;;;;;4991332;28;20038;-58
2021/09/22 11:25:05;;;;;;;19.95;11.90;;;20.20;92.00;;;;;;4983536;28;20117;-61
2021/09/22 11:27:32;;;;;;;16.65;11.20;;;19.80;92.80;;;;;;4996404;28;20033;-57
2021/09/22 11:30:01;;;;;;;17.83;11.65;;;19.60;92.80;;;;;;4978709;28;20045;-60
2021/09/22 11:32:32;;;;;;;22.17;12.68;;;19.70;93.20;;;;;;4989883;28;20034;-59
2021/09/22 11:35:18;;;;;;;20.40;12.30;;;19.60;93.70;;;;;;4987238;28;20485;-58
2021/09/22 11:37:49;;;;;;;19.10;10.98;;;19.60;93.40;;;;;;4984267;28;20039;-56
2021/09/22 11:40:22;;;;;;;17.27;12.40;;;19.80;93.50;;;;;;4992214;28;20064;-58
2021/09/22 11:43:00;;;;;;;19.48;12.38;;;19.50;93.00;;;;;;4965934;28;20426;-58
2021/09/22 11:45:33;;;;;;;20.58;13.82;;;19.50;93.20;;;;;;4988697;28;20030;-58
2021/09/22 11:47:59;;;;;;;18.30;13.60;;;19.10;93.60;;;;;;4986142;28;20034;-58
2021/09/22 11:50:31;;;;;;;19.15;12.68;;;19.00;93.80;;;;;;4983861;28;20035;-58
2021/09/22 11:52:57;;;;;;;21.60;12.50;;;18.90;94.20;;;;;;4986320;28;20042;-60
2021/09/22 11:55:23;;;;;;;17.48;12.57;;;18.80;94.70;;;;;;4987780;28;20105;-58
2021/09/22 11:57:49;;;;;;;16.13;11.70;;;18.80;94.50;;;;;;4972747;28;20114;-60
2021/09/22 12:00:16;;;;;;;20.60;12.63;;;18.70;94.30;;;;;;4991465;28;20072;-59
2021/09/22 12:02:42;;;;;;;17.67;11.82;;;18.70;93.40;;;;;;4989602;28;20494;-58
2021/09/22 12:05:16;;;;;;;18.35;11.43;;;18.60;94.20;;;;;;4966699;28;20030;-60
2021/09/22 12:07:43;;;;;;;19.40;11.95;;;18.70;94.80;;;;;;4972698;28;20037;-54
2021/09/22 12:10:10;;;;;;;16.08;11.35;;;18.90;94.10;;;;;;4988390;28;20082;-57
2021/09/22 12:12:37;;;;;;;15.80;11.20;;;18.80;93.50;;;;;;4991660;28;20034;-58
2021/09/22 12:15:04;;;;;;;18.58;12.55;;;18.80;94.20;;;;;;4988629;28;20027;-58
2021/09/22 12:17:36;;;;;;;13.57;10.15;;;18.80;93.90;;;;;;4992540;28;20031;-59
2021/09/22 12:20:05;;;;;;;18.73;11.10;;;18.90;94.40;;;;;;4985705;28;20026;-58
2021/09/22 12:22:34;;;;;;;14.68;10.93;;;18.90;94.10;;;;;;4993204;28;20029;-58
2021/09/22 12:25:01;;;;;;;14.93;10.07;;;19.00;93.80;;;;;;4973471;28;20030;-59
2021/09/22 12:27:29;;;;;;;17.10;11.07;;;18.90;94.40;;;;;;4987707;28;20509;-58
2021/09/22 12:30:09;;;;;;;14.93;9.18;;;18.90;93.50;;;;;;4990692;28;20043;-59
2021/09/22 12:33:00;;;;;;;9.80;7.50;;;18.90;93.60;;;;;;5006525;28;20031;-53
2021/09/22 12:35:31;;;;;;;14.90;10.10;;;18.90;94.40;;;;;;4990587;28;20667;-59
2021/09/22 12:38:00;;;;;;;15.27;10.75;;;18.80;93.20;;;;;;4986869;28;20034;-60
2021/09/22 12:40:48;;;;;;;13.45;9.43;;;18.70;93.60;;;;;;4981422;28;20071;-58
2021/09/22 12:43:24;;;;;;;14.60;9.13;;;18.80;93.30;;;;;;4991041;28;20073;-56
2021/09/22 12:46:03;;;;;;;11.73;8.23;;;18.80;93.60;;;;;;4946182;28;20046;-60
2021/09/22 12:48:29;;;;;;;14.80;8.82;;;18.70;93.90;;;;;;4972043;28;20077;-59